Time;durP1;ratioP1;P1;durP2;ratioP2;P2;SDS_P1;SDS_P2;PMS_P1;PMS_P2;Temp;Humidity;BMP_temperature;BMP_pressure;BME280_temperature;BME280_humidity;BME280_pressure;Samples;Min_cycle;Max_cycle;Signal;HPM_P1;HPM_P2
2023/07/17 00:02:08;;;;;;;15.70;11.93;;;;;;;24.60;93.58;65592.44;5053683;28;20217;-51
2023/07/17 00:04:34;;;;;;;14.15;11.80;;;;;;;24.49;94.83;65578.19;5052523;28;20568;-52
2023/07/17 00:06:59;;;;;;;13.70;11.70;;;;;;;24.46;94.22;65572.28;5034910;28;20217;-51
2023/07/17 00:09:25;;;;;;;13.23;10.18;;;;;;;24.35;92.23;65562.13;5052685;28;20263;-52
2023/07/17 00:11:51;;;;;;;11.05;9.00;;;;;;;24.38;90.46;65568.03;5052341;28;20213;-53
2023/07/17 00:14:17;;;;;;;10.75;9.25;;;;;;;24.34;88.59;65558.97;5052500;28;20402;-52
2023/07/17 00:16:42;;;;;;;11.65;10.02;;;;;;;24.38;88.27;65566.00;5052557;28;20386;-52
2023/07/17 00:19:07;;;;;;;11.50;10.23;;;;;;;24.41;88.86;65571.91;5052457;28;20193;-52
2023/07/17 00:21:33;;;;;;;12.43;10.60;;;;;;;24.29;90.38;65553.44;5050684;28;20220;-52
2023/07/17 00:23:58;;;;;;;12.98;9.98;;;;;;;24.35;90.16;65562.69;5051943;28;20197;-51
2023/07/17 00:26:24;;;;;;;11.65;10.02;;;;;;;24.35;90.84;65562.69;5052391;28;20204;-51
2023/07/17 00:28:49;;;;;;;12.23;9.45;;;;;;;24.35;90.44;65560.09;5052257;28;20679;-52
2023/07/17 00:31:14;;;;;;;14.05;10.98;;;;;;;24.31;90.12;65560.81;5052151;28;20659;-52
2023/07/17 00:33:40;;;;;;;11.57;10.02;;;;;;;24.06;92.11;65533.09;5052069;28;20198;-52
2023/07/17 00:36:05;;;;;;;11.20;9.80;;;;;;;24.29;90.80;65555.47;5052008;28;20618;-52
2023/07/17 00:38:31;;;;;;;11.98;9.75;;;;;;;24.15;91.33;65540.50;5052109;28;20181;-52
2023/07/17 00:40:57;;;;;;;12.20;9.98;;;;;;;24.12;91.45;65537.72;5051956;28;20225;-52
2023/07/17 00:43:22;;;;;;;12.02;10.07;;;;;;;24.16;90.71;65541.59;5052052;28;20198;-59
2023/07/17 00:45:48;;;;;;;12.98;9.98;;;;;;;24.28;88.45;65554.91;5051846;28;20319;-52
2023/07/17 00:48:14;;;;;;;10.45;9.45;;;;;;;24.13;89.95;65535.72;5052368;28;20233;-52
2023/07/17 00:50:41;;;;;;;10.45;8.02;;;;;;;24.09;89.83;65536.41;5051918;28;20204;-52
2023/07/17 00:53:08;;;;;;;10.95;8.98;;;;;;;24.12;88.60;65537.72;5052013;28;20201;-55
2023/07/17 00:55:34;;;;;;;11.48;8.50;;;;;;;24.21;87.85;65546.59;5051794;28;20189;-52
2023/07/17 00:58:00;;;;;;;9.65;8.75;;;;;;;24.34;85.79;65558.44;5051803;28;20289;-52
2023/07/17 01:00:25;;;;;;;9.98;8.07;;;;;;;24.28;84.41;65554.38;5050339;28;20284;-52
2023/07/17 01:02:53;;;;;;;10.07;8.02;;;;;;;24.30;81.70;65559.16;5051351;28;20256;-57
2023/07/17 01:05:18;;;;;;;9.02;7.40;;;;;;;24.16;82.43;65541.59;5051590;28;20210;-53
2023/07/17 01:07:44;;;;;;;8.00;7.20;;;;;;;24.06;83.61;65528.50;5051759;28;20590;-52
2023/07/17 01:10:11;;;;;;;10.00;7.88;;;;;;;24.07;83.96;65529.06;5051447;28;20202;-52
2023/07/17 01:12:38;;;;;;;8.85;7.32;;;;;;;23.94;85.38;65519.75;5051786;28;20205;-53
2023/07/17 01:15:04;;;;;;;9.60;7.70;;;;;;;23.97;83.73;65521.09;5050052;28;20250;-53
2023/07/17 01:17:30;;;;;;;10.68;7.93;;;;;;;23.93;83.86;65516.09;5051223;28;20229;-52
2023/07/17 01:19:55;;;;;;;8.32;7.32;;;;;;;24.04;81.66;65525.72;5033752;28;20205;-53
2023/07/17 01:22:29;;;;;;;10.27;7.38;;;;;;;24.07;79.43;65529.06;5033211;28;20748;-53
2023/07/17 01:24:55;;;;;;;9.43;7.40;;;;;;;24.05;80.47;65529.41;5051243;28;20212;-53
2023/07/17 01:27:20;;;;;;;8.15;6.85;;;;;;;23.96;79.08;65519.41;5051684;28;20205;-53
2023/07/17 01:29:46;;;;;;;9.35;6.93;;;;;;;23.84;81.98;65506.66;5051331;28;20205;-59
2023/07/17 01:32:12;;;;;;;9.60;7.35;;;;;;;23.85;81.73;65507.22;5033477;28;20222;-59
2023/07/17 01:34:41;;;;;;;8.80;7.15;;;;;;;23.80;80.17;65504.25;5049881;28;20234;-53
2023/07/17 01:37:07;;;;;;;9.18;6.90;;;;;;;23.76;77.21;65497.22;5033776;28;20205;-54
2023/07/17 01:39:32;;;;;;;8.02;6.53;;;;;;;23.81;78.23;65503.34;5051253;28;20197;-55
2023/07/17 01:41:58;;;;;;;7.55;6.35;;;;;;;23.62;77.07;65482.28;5050679;28;20221;-55
2023/07/17 01:44:30;;;;;;;7.65;6.38;;;;;;;23.59;77.30;65476.38;5051009;28;20201;-53
2023/07/17 01:46:55;;;;;;;6.50;5.80;;;;;;;23.58;78.58;65477.84;5050985;28;20205;-54
2023/07/17 01:49:21;;;;;;;7.68;6.88;;;;;;;23.51;77.41;65470.09;5050863;28;20205;-54
2023/07/17 01:51:47;;;;;;;7.97;6.43;;;;;;;23.41;79.46;65459.03;5050838;28;20236;-54
2023/07/17 01:54:12;;;;;;;8.80;6.13;;;;;;;23.43;77.34;65458.66;5051001;28;20695;-54
2023/07/17 01:56:39;;;;;;;10.38;6.57;;;;;;;23.42;77.36;65459.56;5050917;28;20555;-54
2023/07/17 01:59:05;;;;;;;7.68;6.68;;;;;;;23.34;77.69;65451.81;5050648;28;20207;-54
2023/07/17 02:01:32;;;;;;;8.32;5.65;;;;;;;23.29;79.40;65443.66;5050772;28;20726;-55
2023/07/17 02:03:58;;;;;;;6.65;5.95;;;;;;;23.30;77.78;65444.78;5050554;28;20202;-54
2023/07/17 02:06:23;;;;;;;5.55;5.05;;;;;;;23.25;78.98;65441.81;5050830;28;20216;-54
2023/07/17 02:08:49;;;;;;;7.45;5.80;;;;;;;23.29;79.89;65443.66;5050929;28;20678;-52
2023/07/17 02:11:14;;;;;;;6.55;5.72;;;;;;;23.16;80.07;65431.84;5050525;28;20221;-51
2023/07/17 02:13:39;;;;;;;6.90;6.20;;;;;;;23.33;79.29;65450.16;5050588;28;20646;-53
2023/07/17 02:16:05;;;;;;;9.23;6.28;;;;;;;23.27;79.83;65441.44;5032862;28;20717;-55
2023/07/17 02:18:31;;;;;;;10.57;5.88;;;;;;;23.14;79.37;65426.50;5050688;28;20683;-52
2023/07/17 02:20:56;;;;;;;7.22;6.38;;;;;;;23.13;81.03;65428.50;5050185;28;20212;-51
2023/07/17 02:23:22;;;;;;;6.05;5.45;;;;;;;23.30;76.65;65447.34;5050454;28;20254;-52
2023/07/17 02:25:48;;;;;;;9.25;6.15;;;;;;;23.23;78.19;65439.06;5050569;28;20201;-51
2023/07/17 02:28:14;;;;;;;5.93;5.32;;;;;;;23.21;78.80;65437.38;5050451;28;20208;-52
2023/07/17 02:30:40;;;;;;;8.48;5.68;;;;;;;23.18;78.93;65436.06;5050385;28;20205;-51
2023/07/17 02:33:06;;;;;;;9.30;5.88;;;;;;;23.25;78.53;65441.81;5050144;28;20216;-52
2023/07/17 02:35:31;;;;;;;7.47;5.88;;;;;;;23.10;79.10;65419.50;5050538;28;20576;-52
2023/07/17 02:37:57;;;;;;;6.65;5.55;;;;;;;23.05;77.19;65417.09;5050656;28;20611;-52
2023/07/17 02:40:22;;;;;;;9.93;6.30;;;;;;;22.94;78.49;65404.91;5050317;28;20217;-51
2023/07/17 02:42:47;;;;;;;8.10;5.70;;;;;;;22.98;77.17;65411.91;5050349;28;20690;-51
2023/07/17 02:45:13;;;;;;;8.90;5.30;;;;;;;22.96;75.42;65411.72;5051812;28;20204;-51
2023/07/17 02:47:39;;;;;;;11.32;5.18;;;;;;;22.86;78.01;65398.06;5056816;28;20244;-52
2023/07/17 02:50:05;;;;;;;7.10;5.65;;;;;;;22.85;77.25;65394.94;5056692;28;20205;-52
2023/07/17 02:52:34;;;;;;;7.68;6.10;;;;;;;22.96;76.11;65409.69;5056757;28;20224;-51
2023/07/17 02:55:02;;;;;;;6.40;5.20;;;;;;;23.09;73.19;65421.50;5056623;28;20199;-52
2023/07/17 02:57:27;;;;;;;7.53;5.55;;;;;;;22.98;73.98;65413.91;5056898;28;20212;-52
2023/07/17 02:59:54;;;;;;;10.57;5.63;;;;;;;22.94;74.71;65404.34;5056122;28;20192;-53
2023/07/17 03:02:20;;;;;;;8.68;5.65;;;;;;;22.87;74.96;65399.16;5056223;28;20221;-51
2023/07/17 03:04:45;;;;;;;8.35;5.30;;;;;;;22.73;76.99;65381.63;5038716;28;20197;-51
2023/07/17 03:07:18;;;;;;;6.55;5.40;;;;;;;22.72;77.86;65383.13;5056657;28;20255;-51
2023/07/17 03:09:43;;;;;;;8.63;5.30;;;;;;;22.70;78.18;65380.34;5056672;28;20603;-55
2023/07/17 03:12:09;;;;;;;8.05;6.20;;;;;;;22.86;77.92;65401.19;5056493;28;20201;-57
2023/07/17 03:14:35;;;;;;;9.85;5.07;;;;;;;22.79;77.73;65387.72;5056359;28;20201;-55
2023/07/17 03:17:00;;;;;;;6.20;5.50;;;;;;;23.18;74.83;65434.06;5056419;28;20223;-55
2023/07/17 03:19:26;;;;;;;5.82;5.30;;;;;;;23.31;73.87;65448.47;5038429;28;20613;-54
2023/07/17 03:21:51;;;;;;;6.13;5.20;;;;;;;23.27;73.18;65444.03;5038363;28;20213;-55
2023/07/17 03:24:16;;;;;;;8.20;5.95;;;;;;;23.37;73.65;65452.00;5056381;28;20201;-54
2023/07/17 03:26:42;;;;;;;7.15;5.85;;;;;;;23.37;72.92;65454.59;5056584;28;20662;-54
2023/07/17 03:29:08;;;;;;;7.25;5.25;;;;;;;23.25;74.68;65443.84;5056225;28;20582;-57
2023/07/17 03:31:33;;;;;;;7.40;4.90;;;;;;;23.52;73.07;65470.63;5056287;28;20683;-54
2023/07/17 03:33:59;;;;;;;13.38;6.15;;;;;;;23.45;72.35;65466.03;5056060;28;20194;-54
2023/07/17 03:36:24;;;;;;;8.25;5.47;;;;;;;23.40;72.68;65454.78;5056082;28;20277;-54
2023/07/17 03:38:50;;;;;;;5.28;4.68;;;;;;;23.25;72.73;65441.81;5056387;28;20689;-55
2023/07/17 03:41:17;;;;;;;5.88;5.28;;;;;;;23.28;74.11;65445.13;5056266;28;20316;-54
2023/07/17 03:43:43;;;;;;;7.93;5.05;;;;;;;23.25;70.83;65444.38;5055995;28;20232;-54
2023/07/17 03:46:08;;;;;;;5.95;4.55;;;;;;;23.10;71.67;65427.22;5056052;28;20255;-54
2023/07/17 03:48:34;;;;;;;5.90;5.30;;;;;;;23.02;70.70;65416.34;5055913;28;20202;-55
2023/07/17 03:50:59;;;;;;;7.95;6.47;;;;;;;22.91;71.00;65401.56;5055839;28;20255;-56
2023/07/17 03:53:24;;;;;;;6.22;4.43;;;;;;;22.82;71.93;65394.19;5056024;28;20671;-53
2023/07/17 03:55:50;;;;;;;6.53;5.03;;;;;;;22.85;72.64;65400.06;5055858;28;20195;-53
2023/07/17 03:58:16;;;;;;;9.48;5.72;;;;;;;22.84;72.31;65398.97;5051781;28;20208;-53
2023/07/17 04:00:41;;;;;;;7.07;4.53;;;;;;;22.82;72.36;65394.19;5052488;28;20193;-52
2023/07/17 04:03:07;;;;;;;7.60;5.65;;;;;;;22.84;71.95;65395.84;5052475;28;20281;-52
2023/07/17 04:05:32;;;;;;;7.40;5.28;;;;;;;22.87;74.83;65399.72;5052224;28;20201;-52
2023/07/17 04:07:58;;;;;;;5.93;5.32;;;;;;;23.12;73.07;65427.41;5052921;28;20193;-51
2023/07/17 04:10:24;;;;;;;7.65;4.45;;;;;;;23.29;73.83;65446.25;5052522;28;20186;-52
2023/07/17 04:12:49;;;;;;;10.35;5.10;;;;;;;23.41;73.08;65459.03;5052599;28;20653;-52
2023/07/17 04:15:15;;;;;;;8.35;5.47;;;;;;;23.45;71.32;65460.31;5052339;28;20288;-50
2023/07/17 04:17:40;;;;;;;7.60;5.25;;;;;;;23.38;73.47;65458.25;5052183;28;20217;-52
2023/07/17 04:20:09;;;;;;;6.43;4.85;;;;;;;23.45;73.06;65462.88;5052398;28;20201;-52
2023/07/17 04:22:34;;;;;;;8.15;4.88;;;;;;;23.31;73.26;65445.34;5052147;28;20221;-53
2023/07/17 04:25:01;;;;;;;9.88;5.10;;;;;;;23.36;73.48;65453.47;5052083;28;20503;-52
2023/07/17 04:27:27;;;;;;;6.53;5.00;;;;;;;23.40;73.32;65457.34;5052441;28;20209;-52
2023/07/17 04:29:52;;;;;;;6.57;4.70;;;;;;;23.33;74.05;65447.59;5052031;28;20640;-52
2023/07/17 04:32:17;;;;;;;7.13;5.28;;;;;;;23.47;74.53;65463.09;5052329;28;20274;-52
2023/07/17 04:34:43;;;;;;;7.50;5.43;;;;;;;23.39;74.91;65453.66;5052023;28;20618;-52
2023/07/17 04:37:08;;;;;;;7.35;5.20;;;;;;;23.36;73.35;65453.47;5052236;28;20495;-52
2023/07/17 04:39:34;;;;;;;7.78;5.55;;;;;;;23.46;73.45;65464.00;5051964;28;20691;-52
2023/07/17 04:41:59;;;;;;;8.13;5.43;;;;;;;23.68;75.18;65490.94;5051831;28;20216;-51
2023/07/17 04:44:25;;;;;;;5.95;5.35;;;;;;;23.61;76.37;65480.63;5052068;28;20550;-53
2023/07/17 04:46:50;;;;;;;8.52;5.88;;;;;;;23.84;74.62;65504.09;5051733;28;20687;-53
2023/07/17 04:49:16;;;;;;;9.55;5.75;;;;;;;23.67;72.85;65487.28;5051801;28;20194;-55
2023/07/17 04:51:42;;;;;;;6.97;5.30;;;;;;;23.62;73.45;65479.16;5052002;28;20202;-52
2023/07/17 04:54:07;;;;;;;8.13;6.45;;;;;;;23.69;74.98;65489.47;5050466;28;20205;-55
2023/07/17 04:56:33;;;;;;;9.02;7.55;;;;;;;23.71;77.12;65492.25;5051699;28;20305;-51
2023/07/17 04:58:59;;;;;;;8.88;6.40;;;;;;;23.86;78.37;65508.88;5051759;28;20644;-53
2023/07/17 05:01:24;;;;;;;12.18;8.05;;;;;;;23.93;78.58;65516.66;5051551;28;20213;-51
2023/07/17 05:03:50;;;;;;;100.45;91.38;;;;;;;24.02;82.31;65526.06;5033789;28;20216;-52
2023/07/17 05:06:15;;;;;;;10.25;7.47;;;;;;;24.09;76.68;65531.28;5051485;28;20220;-51
2023/07/17 05:08:41;;;;;;;7.40;5.35;;;;;;;24.07;72.56;65531.63;5051710;28;20216;-51
2023/07/17 05:11:06;;;;;;;8.60;5.70;;;;;;;24.00;73.27;65521.25;5051746;28;20213;-52
2023/07/17 05:13:32;;;;;;;18.33;13.15;;;;;;;23.80;72.87;65499.09;5051542;28;20599;-52
2023/07/17 05:15:59;;;;;;;8.13;5.82;;;;;;;23.81;71.96;65502.78;5051427;28;20268;-57
2023/07/17 05:18:24;;;;;;;5.88;5.28;;;;;;;23.79;72.78;65498.00;5051639;28;20288;-53
2023/07/17 05:20:51;;;;;;;11.73;7.10;;;;;;;23.90;78.17;65510.75;5033368;28;20562;-51
2023/07/17 05:23:17;;;;;;;7.68;6.50;;;;;;;23.97;74.53;65517.94;5051611;28;20202;-52
2023/07/17 05:25:55;;;;;;;10.88;7.10;;;;;;;24.16;74.67;65541.59;5051535;28;20304;-51
2023/07/17 05:28:21;;;;;;;8.10;6.35;;;;;;;24.22;74.62;65545.69;5051324;28;20209;-54
2023/07/17 05:30:51;;;;;;;9.88;6.20;;;;;;;24.21;76.53;65542.00;5051306;28;20267;-50
2023/07/17 05:33:16;;;;;;;7.60;6.32;;;;;;;24.39;74.41;65564.53;5051262;28;20292;-52
2023/07/17 05:35:42;;;;;;;9.80;6.32;;;;;;;24.52;75.28;65578.41;5051054;28;20244;-53
2023/07/17 05:38:07;;;;;;;10.50;6.55;;;;;;;24.52;75.42;65580.97;5051585;28;20201;-52
2023/07/17 05:40:35;;;;;;;9.35;6.80;;;;;;;24.75;77.98;65606.50;5032975;28;20208;-50
2023/07/17 05:43:01;;;;;;;7.22;6.30;;;;;;;25.05;76.10;65636.66;5032527;28;20227;-53
2023/07/17 05:45:26;;;;;;;10.98;6.00;;;;;;;24.99;73.44;65633.13;5050188;28;20194;-52
2023/07/17 05:47:51;;;;;;;8.18;5.85;;;;;;;25.10;75.04;65644.78;5050624;28;20205;-51
2023/07/17 05:50:19;;;;;;;7.30;6.30;;;;;;;25.14;72.85;65649.22;5031391;28;20735;-52
2023/07/17 05:52:45;;;;;;;8.32;6.00;;;;;;;25.31;72.75;65668.63;5050969;28;20255;-53
2023/07/17 05:55:10;;;;;;;9.50;5.72;;;;;;;25.36;70.84;65671.63;5032911;28;20680;-52
2023/07/17 05:57:36;;;;;;;8.98;7.13;;;;;;;25.48;69.87;65684.41;5050855;28;20224;-53
2023/07/17 06:00:03;;;;;;;10.25;7.18;;;;;;;25.58;70.03;65695.50;5051066;28;20668;-52
2023/07/17 06:02:30;;;;;;;9.20;8.20;;;;;;;25.53;70.70;65689.97;5051087;28;20270;-52
2023/07/17 06:04:58;;;;;;;9.57;7.15;;;;;;;25.45;71.53;65681.09;5051164;28;20166;-52
2023/07/17 06:07:23;;;;;;;11.02;7.72;;;;;;;25.53;71.10;65695.13;5051012;28;20271;-52
2023/07/17 06:09:49;;;;;;;8.57;7.75;;;;;;;25.48;71.31;65684.97;5050720;28;20197;-52
2023/07/17 06:12:14;;;;;;;11.55;7.43;;;;;;;25.50;71.31;65689.19;5051136;28;20216;-53
2023/07/17 06:14:40;;;;;;;11.05;7.25;;;;;;;25.56;71.69;65695.88;5050875;28;20228;-53
2023/07/17 06:17:06;;;;;;;11.50;7.45;;;;;;;25.62;72.80;65700.50;5050636;28;20228;-52
2023/07/17 06:19:31;;;;;;;15.30;7.63;;;;;;;25.75;73.22;65716.97;5032591;28;20202;-52
2023/07/17 06:21:58;;;;;;;17.33;11.13;;;;;;;25.78;71.63;65717.69;5050174;28;20316;-54
2023/07/17 06:24:23;;;;;;;17.30;8.90;;;;;;;25.58;71.87;65696.06;5050632;28;20259;-52
2023/07/17 06:26:49;;;;;;;8.85;6.97;;;;;;;25.27;72.13;65661.09;5050807;28;20213;-52
2023/07/17 06:29:14;;;;;;;11.02;7.40;;;;;;;25.04;70.94;65636.09;5050721;28;20204;-53
2023/07/17 06:31:41;;;;;;;10.57;8.18;;;;;;;25.17;71.05;65649.97;5032899;28;20289;-54
2023/07/17 06:34:07;;;;;;;12.13;7.63;;;;;;;25.42;68.34;65680.31;5050885;28;20205;-52
2023/07/17 06:36:32;;;;;;;10.80;7.43;;;;;;;25.43;69.75;65679.41;5050449;28;20213;-54
2023/07/17 06:38:58;;;;;;;16.23;10.27;;;;;;;25.35;69.73;65670.50;5050378;28;20193;-56
2023/07/17 06:41:24;;;;;;;11.40;8.60;;;;;;;25.03;72.20;65634.44;5050632;28;20355;-53
2023/07/17 06:43:50;;;;;;;10.27;7.32;;;;;;;25.32;68.89;65667.19;5032444;28;20204;-55
2023/07/17 06:46:17;;;;;;;13.95;8.10;;;;;;;25.43;68.86;65681.44;5050617;28;20217;-52
2023/07/17 06:48:42;;;;;;;16.83;7.80;;;;;;;25.27;70.99;65661.63;5049078;28;20190;-53
2023/07/17 06:51:08;;;;;;;13.18;7.70;;;;;;;25.08;71.60;65642.56;5050330;28;20383;-52
2023/07/17 06:53:33;;;;;;;19.33;13.52;;;;;;;25.08;72.29;65642.56;5050311;28;20679;-52
2023/07/17 06:56:00;;;;;;;17.27;11.50;;;;;;;25.35;72.38;65669.97;5050071;28;20220;-53
2023/07/17 06:58:26;;;;;;;15.63;11.10;;;;;;;25.55;71.91;65694.75;5050245;28;20229;-53
2023/07/17 07:00:59;;;;;;;13.82;8.43;;;;;;;25.57;70.40;65694.41;5050065;28;20204;-52
2023/07/17 07:03:27;;;;;;;9.00;7.32;;;;;;;25.52;70.69;65691.41;5050123;28;20659;-52
2023/07/17 07:05:57;;;;;;;13.45;8.48;;;;;;;25.50;70.02;65686.63;5032189;28;20657;-52
2023/07/17 07:08:24;;;;;;;11.85;8.38;;;;;;;25.54;71.02;65691.06;5050324;28;20205;-52
2023/07/17 07:10:52;;;;;;;17.92;8.85;;;;;;;25.46;69.63;65682.75;5048684;28;20727;-53
2023/07/17 07:13:17;;;;;;;14.82;8.48;;;;;;;25.44;70.13;65679.97;5050000;28;20190;-52
2023/07/17 07:15:43;;;;;;;11.55;8.00;;;;;;;25.48;69.79;65684.41;5050180;28;20202;-53
2023/07/17 07:18:08;;;;;;;16.50;8.65;;;;;;;25.53;70.02;65692.53;5050182;28;20332;-52
2023/07/17 07:20:34;;;;;;;14.52;8.85;;;;;;;25.54;69.81;65693.66;5049885;28;20626;-52
2023/07/17 07:22:59;;;;;;;11.27;8.52;;;;;;;25.56;70.36;65696.41;5049795;28;20553;-54
2023/07/17 07:25:26;;;;;;;19.60;9.65;;;;;;;25.57;69.47;65694.41;5049984;28;20694;-56
2023/07/17 07:27:52;;;;;;;12.85;8.25;;;;;;;25.68;70.04;65707.16;5049751;28;20217;-53
2023/07/17 07:30:24;;;;;;;11.07;8.30;;;;;;;25.89;70.37;65726.78;5050248;28;20734;-54
2023/07/17 07:32:50;;;;;;;13.93;8.90;;;;;;;25.87;70.15;65727.72;5051643;28;20222;-53
2023/07/17 07:35:15;;;;;;;13.43;8.80;;;;;;;25.94;70.29;65732.34;5053370;28;20198;-53
2023/07/17 07:37:41;;;;;;;11.55;8.77;;;;;;;25.94;68.58;65734.94;5053488;28;20224;-52
2023/07/17 07:40:11;;;;;;;15.15;9.23;;;;;;;26.02;69.09;65746.94;5035506;28;20197;-53
2023/07/17 07:42:37;;;;;;;16.00;9.32;;;;;;;26.13;69.78;65756.03;5052864;28;20225;-52
2023/07/17 07:45:03;;;;;;;10.55;9.45;;;;;;;26.30;67.73;65774.94;5053083;28;20688;-53
2023/07/17 07:47:30;;;;;;;15.85;9.07;;;;;;;26.53;67.39;65803.63;5051626;28;20316;-53
2023/07/17 07:49:55;;;;;;;12.55;8.73;;;;;;;26.49;65.97;65798.63;5035418;28;20216;-53
2023/07/17 07:52:21;;;;;;;14.02;9.65;;;;;;;26.56;65.90;65804.34;5053390;28;20596;-52
2023/07/17 07:54:46;;;;;;;13.75;9.65;;;;;;;26.52;66.85;65799.91;5053056;28;20201;-53
2023/07/17 07:57:13;;;;;;;13.30;8.82;;;;;;;26.52;68.21;65799.91;5052995;28;20654;-53
2023/07/17 07:59:39;;;;;;;16.80;9.73;;;;;;;26.62;66.70;65811.03;5052901;28;20182;-56
2023/07/17 08:02:04;;;;;;;10.73;9.32;;;;;;;26.78;67.16;65825.13;5052851;28;20231;-53
2023/07/17 08:04:30;;;;;;;12.52;10.43;;;;;;;26.77;66.62;65826.59;5053030;28;20201;-54
2023/07/17 08:06:56;;;;;;;12.73;10.25;;;;;;;27.15;66.30;65868.84;5053132;28;20224;-53
2023/07/17 08:09:22;;;;;;;12.07;9.85;;;;;;;27.18;66.14;65872.75;5052844;28;20205;-53
2023/07/17 08:11:47;;;;;;;13.30;9.32;;;;;;;27.00;65.60;65852.72;5053024;28;20218;-53
2023/07/17 08:14:13;;;;;;;12.55;9.75;;;;;;;27.01;65.59;65858.44;5052828;28;20588;-54
2023/07/17 08:16:39;;;;;;;12.13;8.50;;;;;;;27.16;65.17;65869.97;5052567;28;20224;-52
2023/07/17 08:19:04;;;;;;;17.75;10.13;;;;;;;27.27;64.79;65879.59;5052813;28;20198;-51
2023/07/17 08:21:30;;;;;;;14.57;9.90;;;;;;;27.18;65.27;65872.75;5052618;28;20221;-53
2023/07/17 08:23:56;;;;;;;12.48;10.40;;;;;;;27.27;65.48;65882.19;5052436;28;20209;-53
2023/07/17 08:26:22;;;;;;;15.52;9.73;;;;;;;27.38;65.56;65894.44;5051330;28;20213;-53
2023/07/17 08:28:47;;;;;;;16.20;10.05;;;;;;;27.87;61.76;65948.38;5052475;28;20197;-57
2023/07/17 08:31:13;;;;;;;20.77;10.65;;;;;;;27.80;61.29;65941.13;5052397;28;20210;-54
2023/07/17 08:33:39;;;;;;;14.75;10.00;;;;;;;27.75;63.81;65935.03;5034712;28;20520;-53
2023/07/17 08:36:04;;;;;;;14.38;9.88;;;;;;;27.65;63.20;65923.91;5052361;28;20212;-52
2023/07/17 08:38:30;;;;;;;15.88;9.25;;;;;;;27.85;62.76;65946.16;5052361;28;20193;-55
2023/07/17 08:40:55;;;;;;;11.35;8.80;;;;;;;27.91;63.36;65950.78;5034272;28;20687;-53
2023/07/17 08:43:22;;;;;;;12.52;10.05;;;;;;;27.89;62.43;65948.56;5051885;28;20306;-54
2023/07/17 08:45:49;;;;;;;12.45;8.93;;;;;;;27.99;61.51;65962.31;5052280;28;20202;-52
2023/07/17 08:48:16;;;;;;;13.63;9.70;;;;;;;28.07;62.39;65968.63;5034443;28;20206;-53
2023/07/17 08:50:42;;;;;;;11.10;9.80;;;;;;;28.06;61.18;65970.09;5052199;28;20200;-58
2023/07/17 08:53:09;;;;;;;13.43;10.02;;;;;;;28.04;60.79;65967.28;5052142;28;20214;-53
2023/07/17 08:55:35;;;;;;;13.15;9.75;;;;;;;28.23;61.27;65986.41;5034433;28;20190;-53
2023/07/17 08:58:06;;;;;;;13.50;9.73;;;;;;;28.41;61.94;66008.47;5050562;28;20267;-53
2023/07/17 09:00:32;;;;;;;14.65;10.15;;;;;;;28.69;59.19;66039.09;5052015;28;20162;-52
2023/07/17 09:02:58;;;;;;;12.45;10.23;;;;;;;28.70;59.61;66040.22;5033879;28;20280;-52
2023/07/17 09:05:25;;;;;;;12.20;9.55;;;;;;;28.71;60.67;66039.28;5051749;28;20209;-52
2023/07/17 09:07:50;;;;;;;13.98;9.68;;;;;;;28.87;62.26;66057.09;5051467;28;20222;-53
2023/07/17 09:10:23;;;;;;;13.15;9.32;;;;;;;29.32;58.82;66109.28;5051854;28;20205;-52
2023/07/17 09:12:55;;;;;;;11.23;8.98;;;;;;;29.32;59.73;66106.09;5051890;28;20252;-53
2023/07/17 09:15:21;;;;;;;12.40;10.00;;;;;;;29.38;57.00;66115.94;5051457;28;20292;-51
2023/07/17 09:17:47;;;;;;;14.52;10.15;;;;;;;29.54;59.02;66133.78;5033679;28;20224;-55
2023/07/17 09:20:14;;;;;;;11.52;9.50;;;;;;;29.64;59.88;66139.16;5051783;28;20193;-53
2023/07/17 09:22:41;;;;;;;11.40;9.32;;;;;;;29.77;57.58;66154.22;5033879;28;20237;-55
2023/07/17 09:25:07;;;;;;;12.05;9.68;;;;;;;29.90;57.28;66172.78;5051373;28;20211;-53
2023/07/17 09:27:47;;;;;;;13.48;10.43;;;;;;;30.10;55.50;66195.63;5033801;28;20213;-53
2023/07/17 09:30:19;;;;;;;13.30;10.35;;;;;;;30.19;54.66;66205.09;5051584;28;20270;-53
2023/07/17 09:32:46;;;;;;;14.60;10.15;;;;;;;30.23;54.20;66209.56;5051472;28;20217;-54
2023/07/17 09:35:13;;;;;;;11.68;8.82;;;;;;;30.28;53.02;66213.09;5051304;28;20731;-53
2023/07/17 09:37:41;;;;;;;10.85;8.90;;;;;;;30.40;50.49;66228.53;5050258;28;20511;-52
2023/07/17 09:40:09;;;;;;;10.82;8.15;;;;;;;30.40;48.69;66229.06;5048984;28;20201;-52
2023/07/17 09:42:36;;;;;;;12.07;8.85;;;;;;;30.61;48.18;66249.91;5051535;28;20225;-52
2023/07/17 09:45:03;;;;;;;8.52;7.72;;;;;;;30.85;48.02;66278.72;5033324;28;20197;-52
2023/07/17 09:47:31;;;;;;;12.82;8.60;;;;;;;30.97;47.04;66286.34;5051519;28;20263;-52
2023/07/17 09:50:00;;;;;;;12.35;9.00;;;;;;;31.53;47.53;66354.03;5051251;28;20216;-56
2023/07/17 09:52:31;;;;;;;13.70;8.70;;;;;;;31.73;48.29;66371.13;5051054;28;20239;-55
2023/07/17 09:55:00;;;;;;;10.63;8.63;;;;;;;31.72;46.15;66372.06;5032898;28;20255;-52
2023/07/17 09:57:27;;;;;;;9.68;8.52;;;;;;;31.78;45.30;66378.75;5050893;28;20327;-52
2023/07/17 09:59:57;;;;;;;12.48;8.30;;;;;;;32.40;46.00;66448.00;5050823;28;20300;-52
2023/07/17 10:02:35;;;;;;;13.13;7.47;;;;;;;32.76;42.92;66487.66;5050296;28;20228;-52
2023/07/17 10:05:05;;;;;;;9.63;7.82;;;;;;;32.56;41.68;66468.50;5050916;28;20231;-52
2023/07/17 10:07:35;;;;;;;9.68;7.20;;;;;;;32.96;40.89;66513.16;5051113;28;20301;-53
2023/07/17 10:10:01;;;;;;;10.57;7.57;;;;;;;33.31;42.01;66546.47;5050646;28;20299;-52
2023/07/17 10:12:27;;;;;;;8.43;7.63;;;;;;;33.45;39.25;66564.19;5050890;28;20209;-53
2023/07/17 10:14:54;;;;;;;9.90;7.60;;;;;;;33.81;42.18;66605.00;5050793;28;20288;-52
2023/07/17 10:17:23;;;;;;;8.05;7.15;;;;;;;34.15;38.39;66642.47;5032959;28;20214;-52
2023/07/17 10:19:49;;;;;;;7.35;6.57;;;;;;;34.25;39.01;66653.66;5050814;28;20205;-52
2023/07/17 10:22:15;;;;;;;8.07;6.40;;;;;;;34.27;36.50;66655.88;5050479;28;20311;-53
2023/07/17 10:24:41;;;;;;;7.75;6.90;;;;;;;34.50;37.35;66681.63;5050679;28;20232;-52
2023/07/17 10:27:07;;;;;;;8.15;6.47;;;;;;;34.67;38.05;66700.06;5050550;28;20649;-52
2023/07/17 10:29:43;;;;;;;7.85;6.68;;;;;;;34.90;34.12;66723.19;5050466;28;20201;-52
2023/07/17 10:32:19;;;;;;;11.50;6.75;;;;;;;34.63;33.58;66698.22;5032711;28;20307;-52
2023/07/17 10:34:47;;;;;;;6.85;6.03;;;;;;;34.66;34.00;66698.97;5050416;28;20207;-52
2023/07/17 10:37:41;;;;;;;8.18;6.82;;;;;;;34.82;34.33;66716.31;5050395;28;20220;-52
2023/07/17 10:40:24;;;;;;;8.63;6.95;;;;;;;35.27;35.08;66767.22;5050164;28;20213;-52
2023/07/17 10:42:49;;;;;;;10.15;5.53;;;;;;;34.64;32.92;66697.28;5050041;28;20252;-52
2023/07/17 10:45:15;;;;;;;8.15;5.95;;;;;;;34.52;34.12;66680.69;5050239;28;20233;-52
2023/07/17 10:47:41;;;;;;;7.82;6.03;;;;;;;34.41;30.89;66671.53;5050189;28;20229;-54
2023/07/17 10:50:07;;;;;;;6.97;5.78;;;;;;;34.43;32.25;66673.78;5050186;28;20649;-53
2023/07/17 10:52:36;;;;;;;8.48;6.55;;;;;;;34.66;32.77;66699.50;5050010;28;20723;-51
2023/07/17 10:55:06;;;;;;;7.00;6.28;;;;;;;35.16;32.73;66754.34;5050032;28;20204;-52
2023/07/17 10:57:31;;;;;;;8.50;7.60;;;;;;;35.52;33.03;66792.03;5050413;28;20610;-53
2023/07/17 10:59:58;;;;;;;7.25;6.03;;;;;;;35.97;32.46;66842.44;5050310;28;20606;-53
2023/07/17 11:02:27;;;;;;;9.07;8.18;;;;;;;35.37;33.96;66778.41;5032197;28;20358;-61
2023/07/17 11:04:53;;;;;;;9.07;6.65;;;;;;;35.36;33.83;66774.69;5050140;28;20222;-53
2023/07/17 11:07:19;;;;;;;11.40;6.90;;;;;;;35.99;33.21;66846.75;5052237;28;20216;-57
2023/07/17 11:09:45;;;;;;;12.38;7.72;;;;;;;36.15;33.23;66859.97;5053476;28;20201;-51
2023/07/17 11:12:10;;;;;;;12.02;8.73;;;;;;;36.31;32.09;66882.56;5053729;28;20208;-52
2023/07/17 11:14:37;;;;;;;6.78;6.18;;;;;;;36.41;29.37;66893.22;5053400;28;20205;-53
2023/07/17 11:17:03;;;;;;;7.45;6.20;;;;;;;36.31;30.75;66879.94;5053546;28;20223;-52
2023/07/17 11:19:29;;;;;;;9.05;7.15;;;;;;;36.48;32.40;66898.44;5053473;28;20209;-53
2023/07/17 11:21:55;;;;;;;9.57;6.32;;;;;;;36.10;32.45;66856.97;5053465;28;20263;-52
2023/07/17 11:24:21;;;;;;;7.05;6.13;;;;;;;35.68;31.20;66809.38;5053280;28;20288;-51
2023/07/17 11:26:47;;;;;;;8.60;7.00;;;;;;;36.02;30.65;66850.09;5053551;28;20263;-52